createdAt,value
2018-11-29T00:00:45.728Z,22.10
2018-11-29T00:03:13.970Z,20.90
2018-11-29T00:05:42.228Z,20.33
2018-11-29T00:08:10.471Z,21.40
2018-11-29T00:10:38.693Z,21.63
2018-11-29T00:13:06.978Z,20.93
2018-11-29T00:15:35.452Z,20.97
2018-11-29T00:18:03.896Z,21.07
2018-11-29T00:20:32.722Z,22.93
2018-11-29T00:23:00.925Z,22.33
2018-11-29T00:25:29.147Z,21.77
2018-11-29T00:27:57.357Z,24.30
2018-11-29T00:30:26.025Z,23.10
2018-11-29T00:32:55.115Z,19.37
2018-11-29T00:35:23.371Z,22.00
2018-11-29T00:37:51.612Z,22.10
2018-11-29T00:40:20.730Z,22.97
2018-11-29T00:42:48.964Z,23.90
2018-11-29T00:45:26.151Z,24.07
2018-11-29T00:47:54.369Z,22.50
2018-11-29T00:50:22.622Z,21.67
2018-11-29T00:52:51.293Z,22.00
2018-11-29T00:55:39.320Z,22.53
2018-11-29T00:58:07.552Z,24.83
2018-11-29T01:00:35.804Z,24.37
2018-11-29T01:03:04.034Z,23.13
2018-11-29T01:05:32.318Z,23.93
2018-11-29T01:08:00.512Z,24.47
2018-11-29T01:10:28.779Z,24.10
2018-11-29T01:12:56.983Z,25.13
2018-11-29T01:15:25.263Z,21.73
2018-11-29T01:17:53.496Z,23.07
2018-11-29T01:20:22.171Z,22.90
2018-11-29T01:22:50.400Z,24.90
2018-11-29T01:25:18.828Z,25.37
2018-11-29T01:27:50.381Z,23.83
2018-11-29T01:30:19.626Z,25.90
2018-11-29T01:32:47.844Z,24.27
2018-11-29T01:35:17.187Z,25.87
2018-11-29T01:37:45.445Z,24.50
2018-11-29T01:40:36.630Z,23.23
2018-11-29T01:43:04.876Z,24.67
2018-11-29T01:45:33.129Z,23.87
2018-11-29T01:48:01.352Z,24.87
2018-11-29T01:50:29.611Z,26.27
2018-11-29T01:52:57.831Z,23.70
2018-11-29T01:55:26.049Z,24.37
2018-11-29T01:57:54.280Z,22.93
2018-11-29T02:00:22.511Z,24.33
2018-11-29T02:02:51.909Z,25.03
2018-11-29T02:05:20.157Z,24.97
2018-11-29T02:07:48.398Z,24.43
2018-11-29T02:10:36.304Z,24.73
2018-11-29T02:13:04.575Z,23.73
2018-11-29T02:15:32.786Z,25.23
2018-11-29T02:18:01.035Z,24.50
2018-11-29T02:20:29.256Z,24.40
2018-11-29T02:22:57.512Z,23.33
2018-11-29T02:25:25.724Z,24.00
2018-11-29T02:27:53.957Z,22.73
2018-11-29T02:30:22.875Z,23.53
2018-11-29T02:32:51.577Z,24.70
2018-11-29T02:35:19.784Z,22.80
2018-11-29T02:37:48.012Z,22.70
2018-11-29T02:40:17.008Z,22.93
2018-11-29T02:42:45.609Z,24.23
2018-11-29T02:45:15.001Z,22.27
2018-11-29T02:47:43.245Z,23.50
2018-11-29T02:50:11.998Z,21.27
2018-11-29T02:52:40.216Z,22.50
2018-11-29T02:55:12.234Z,22.13
2018-11-29T02:57:40.983Z,23.03
2018-11-29T03:00:28.582Z,23.90
2018-11-29T03:02:56.842Z,20.73
2018-11-29T03:05:25.067Z,21.30
2018-11-29T03:07:53.317Z,22.37
2018-11-29T03:10:40.637Z,21.37
2018-11-29T03:13:08.914Z,23.43
2018-11-29T03:15:37.141Z,20.07
2018-11-29T03:18:06.246Z,21.50
2018-11-29T03:20:34.474Z,20.90
2018-11-29T03:23:02.743Z,21.87
2018-11-29T03:25:30.965Z,22.13
2018-11-29T03:27:59.198Z,21.40
2018-11-29T03:30:27.453Z,20.30
2018-11-29T03:32:55.680Z,22.50
2018-11-29T03:35:23.919Z,20.97
2018-11-29T03:37:52.150Z,21.70
2018-11-29T03:40:20.416Z,21.30
2018-11-29T03:42:48.634Z,21.43
2018-11-29T03:45:17.182Z,21.07
2018-11-29T03:47:45.756Z,21.47
2018-11-29T03:50:18.102Z,19.47
2018-11-29T03:52:46.602Z,20.53
2018-11-29T03:55:14.854Z,20.60
2018-11-29T03:57:43.069Z,21.50
2018-11-29T04:00:30.733Z,19.90
2018-11-29T04:02:58.973Z,21.10
2018-11-29T04:05:27.241Z,21.63
2018-11-29T04:07:55.478Z,21.43
2018-11-29T04:10:23.741Z,20.40
2018-11-29T04:12:51.980Z,19.87
2018-11-29T04:15:20.218Z,20.83
2018-11-29T04:17:48.444Z,21.30
2018-11-29T04:20:17.534Z,20.93
2018-11-29T04:22:45.802Z,19.13
2018-11-29T04:25:14.914Z,18.73
2018-11-29T04:27:43.146Z,19.80
2018-11-29T04:30:15.256Z,18.77
2018-11-29T04:32:43.611Z,19.13
2018-11-29T04:35:12.305Z,20.40
2018-11-29T04:37:40.593Z,20.07
2018-11-29T04:40:29.243Z,19.30
2018-11-29T04:42:57.498Z,19.67
2018-11-29T04:45:31.739Z,18.93
2018-11-29T04:47:59.963Z,19.20
2018-11-29T04:50:28.219Z,18.10
2018-11-29T04:52:56.465Z,18.97
2018-11-29T04:55:24.739Z,19.60
2018-11-29T04:57:52.951Z,20.20
2018-11-29T05:00:28.671Z,18.50
2018-11-29T05:02:56.897Z,18.40
2018-11-29T05:05:25.132Z,19.00
2018-11-29T05:07:53.378Z,18.70
2018-11-29T05:10:21.606Z,19.00
2018-11-29T05:12:49.853Z,19.87
2018-11-29T05:15:18.083Z,18.43
2018-11-29T05:17:46.335Z,18.90
2018-11-29T05:20:14.555Z,19.97
2018-11-29T05:22:42.833Z,16.30
2018-11-29T05:25:11.097Z,18.00
2018-11-29T05:27:39.344Z,18.43
2018-11-29T05:30:10.037Z,18.40
2018-11-29T05:32:38.298Z,17.43
2018-11-29T05:35:08.212Z,18.47
2018-11-29T05:37:36.603Z,17.37
2018-11-29T05:40:05.910Z,18.10
2018-11-29T05:42:34.218Z,19.23
2018-11-29T05:45:02.467Z,17.57
2018-11-29T05:47:30.750Z,18.27
2018-11-29T05:49:58.978Z,18.33
2018-11-29T05:52:27.201Z,19.37
2018-11-29T05:54:55.494Z,18.07
2018-11-29T05:57:23.724Z,18.10
2018-11-29T05:59:52.025Z,16.53
2018-11-29T06:02:20.256Z,18.37
2018-11-29T06:04:48.510Z,18.63
2018-11-29T06:07:16.755Z,18.77
2018-11-29T06:09:44.997Z,17.60
2018-11-29T06:12:13.208Z,17.37
2018-11-29T06:14:41.477Z,18.40
2018-11-29T06:17:09.708Z,18.17
2018-11-29T06:19:37.960Z,18.10
2018-11-29T06:22:06.192Z,16.73
2018-11-29T06:24:34.453Z,17.00
2018-11-29T06:27:02.668Z,16.70
2018-11-29T06:29:30.901Z,17.50
2018-11-29T06:31:59.114Z,18.10
2018-11-29T06:34:27.407Z,17.73
2018-11-29T06:36:55.634Z,17.40
2018-11-29T06:39:23.935Z,17.30
2018-11-29T06:41:52.150Z,17.20
2018-11-29T06:44:20.416Z,16.23
2018-11-29T06:46:48.727Z,17.30
2018-11-29T06:49:17.001Z,17.73
2018-11-29T06:51:45.234Z,17.20
2018-11-29T06:54:13.472Z,16.83
2018-11-29T06:56:41.686Z,18.43
2018-11-29T06:59:09.935Z,16.37
2018-11-29T07:01:38.189Z,17.97
2018-11-29T07:04:06.609Z,17.63
2018-11-29T07:06:34.850Z,15.43
2018-11-29T07:09:03.117Z,17.93
2018-11-29T07:11:31.373Z,16.73
2018-11-29T07:13:59.593Z,16.80
2018-11-29T07:16:27.854Z,16.47
2018-11-29T07:18:56.104Z,14.87
2018-11-29T07:21:43.439Z,16.50
2018-11-29T07:24:11.669Z,15.37
2018-11-29T07:26:39.911Z,15.73
2018-11-29T07:29:08.129Z,15.10
2018-11-29T07:31:36.379Z,14.63
2018-11-29T07:34:04.664Z,15.97
2018-11-29T07:36:32.869Z,16.67
2018-11-29T07:39:01.160Z,16.37
2018-11-29T07:41:29.402Z,17.07
2018-11-29T07:43:58.738Z,16.93
2018-11-29T07:46:26.943Z,15.67
2018-11-29T07:48:55.160Z,14.50
2018-11-29T07:51:23.410Z,15.17
2018-11-29T07:53:51.634Z,15.13
2018-11-29T07:56:19.902Z,15.57
2018-11-29T07:58:51.739Z,16.40
2018-11-29T08:01:16.360Z,15.17
2018-11-29T08:03:44.586Z,14.67
2018-11-29T08:06:12.844Z,14.60
2018-11-29T08:08:41.084Z,15.73
2018-11-29T08:11:09.361Z,15.03
2018-11-29T08:13:37.573Z,15.80
2018-11-29T08:16:06.420Z,15.90
2018-11-29T08:18:34.642Z,14.87
2018-11-29T08:21:02.880Z,14.33
2018-11-29T08:23:31.134Z,15.70
2018-11-29T08:25:59.418Z,14.63
2018-11-29T08:28:27.640Z,14.73
2018-11-29T08:30:55.890Z,14.17
2018-11-29T08:33:24.157Z,14.17
2018-11-29T08:35:52.392Z,14.23
2018-11-29T08:38:20.639Z,15.00
2018-11-29T08:40:48.874Z,15.17
2018-11-29T08:43:17.118Z,14.70
2018-11-29T08:45:45.350Z,13.43
2018-11-29T08:48:13.588Z,13.23
2018-11-29T08:50:41.797Z,13.13
2018-11-29T08:53:10.042Z,13.93
2018-11-29T08:55:38.279Z,14.10
2018-11-29T08:58:06.792Z,14.00
2018-11-29T09:00:35.007Z,15.13
2018-11-29T09:03:03.281Z,14.57
2018-11-29T09:05:33.949Z,12.77
2018-11-29T09:07:59.789Z,13.60
2018-11-29T09:10:31.527Z,13.00
2018-11-29T09:12:56.313Z,13.33
2018-11-29T09:15:24.568Z,14.33
2018-11-29T09:17:52.808Z,13.90
2018-11-29T09:20:21.884Z,13.77
2018-11-29T09:22:50.144Z,13.73
2018-11-29T09:25:19.678Z,14.43
2018-11-29T09:27:47.895Z,14.30
2018-11-29T09:30:36.004Z,12.20
2018-11-29T09:33:04.244Z,14.40
2018-11-29T09:35:32.460Z,13.67
2018-11-29T09:38:00.782Z,12.73
2018-11-29T09:40:29.032Z,12.50
2018-11-29T09:42:57.241Z,13.03
2018-11-29T09:45:25.489Z,13.07
2018-11-29T09:47:57.142Z,12.97
2018-11-29T09:50:26.092Z,13.50
2018-11-29T09:52:54.324Z,13.73
2018-11-29T09:55:22.565Z,13.33
2018-11-29T09:57:51.228Z,13.30
2018-11-29T10:00:39.388Z,13.90
2018-11-29T10:03:27.107Z,13.47
2018-11-29T10:05:55.365Z,13.90
2018-11-29T10:08:26.189Z,12.60
2018-11-29T10:10:51.829Z,13.97
2018-11-29T10:13:20.056Z,12.07
2018-11-29T10:15:48.338Z,13.57
2018-11-29T10:18:16.562Z,13.20
2018-11-29T10:20:44.805Z,13.43
2018-11-29T10:23:13.038Z,11.80
2018-11-29T10:25:41.751Z,13.07
2018-11-29T10:28:14.068Z,14.73
2018-11-29T10:31:02.223Z,14.17
2018-11-29T10:33:30.475Z,13.00
2018-11-29T10:35:59.497Z,13.30
2018-11-29T10:38:26.941Z,13.20
2018-11-29T10:40:55.271Z,13.00
2018-11-29T10:43:23.503Z,13.83
2018-11-29T10:45:51.785Z,12.67
2018-11-29T10:48:39.449Z,13.67
2018-11-29T10:51:07.708Z,13.20
2018-11-29T10:53:37.880Z,12.90
2018-11-29T10:56:04.436Z,12.70
2018-11-29T10:58:32.664Z,11.57
2018-11-29T11:01:20.017Z,12.83
2018-11-29T11:03:48.264Z,11.90
2018-11-29T11:06:16.538Z,12.67
2018-11-29T11:08:44.746Z,12.07
2018-11-29T11:11:12.969Z,13.90
2018-11-29T11:13:41.248Z,12.43
2018-11-29T11:16:09.947Z,12.17
2018-11-29T11:18:37.722Z,13.03
2018-11-29T11:21:05.946Z,13.13
2018-11-29T11:23:34.211Z,11.00
2018-11-29T11:26:02.427Z,12.03
2018-11-29T11:28:30.679Z,11.67
2018-11-29T11:30:58.903Z,13.50
2018-11-29T11:33:27.153Z,12.63
2018-11-29T11:35:55.379Z,12.60
2018-11-29T11:38:23.603Z,13.37
2018-11-29T11:40:51.833Z,13.20
2018-11-29T11:43:20.083Z,13.07
2018-11-29T11:45:48.306Z,11.97
2018-11-29T11:48:16.563Z,12.90
2018-11-29T11:50:44.780Z,13.03
2018-11-29T11:53:13.015Z,11.83
2018-11-29T11:55:41.225Z,12.17
2018-11-29T11:58:09.688Z,12.17
2018-11-29T12:00:38.379Z,12.17
2018-11-29T12:03:26.076Z,11.83
2018-11-29T12:05:54.317Z,12.70
2018-11-29T12:08:22.561Z,12.50
2018-11-29T12:10:50.787Z,12.70
2018-11-29T12:13:19.031Z,12.43
2018-11-29T12:15:47.236Z,12.33
2018-11-29T12:18:15.497Z,11.90
2018-11-29T12:20:43.709Z,11.53
2018-11-29T12:23:11.915Z,12.93
2018-11-29T12:25:40.178Z,12.07
2018-11-29T12:28:08.407Z,12.43
2018-11-29T12:30:56.048Z,11.67
2018-11-29T12:33:24.325Z,11.30
2018-11-29T12:35:52.575Z,11.60
2018-11-29T12:38:21.164Z,12.60
2018-11-29T12:40:49.410Z,12.03
2018-11-29T12:43:17.635Z,12.67
2018-11-29T12:45:45.886Z,11.07
2018-11-29T12:48:14.097Z,11.70
2018-11-29T12:50:42.336Z,12.10
2018-11-29T12:53:10.560Z,11.33
2018-11-29T12:55:58.232Z,11.93
2018-11-29T12:58:26.464Z,11.73
2018-11-29T13:00:54.697Z,10.67
2018-11-29T13:03:22.924Z,9.90
2018-11-29T13:05:51.175Z,10.07
2018-11-29T13:08:22.471Z,11.10
2018-11-29T13:10:50.771Z,10.60
2018-11-29T13:13:18.993Z,10.03
2018-11-29T13:15:47.263Z,10.47
2018-11-29T13:18:15.476Z,10.63
2018-11-29T13:20:43.719Z,10.83
2018-11-29T13:23:11.942Z,11.93
2018-11-29T13:25:40.174Z,11.13
2018-11-29T13:28:08.562Z,10.80
2018-11-29T13:30:37.602Z,10.33
2018-11-29T13:33:07.495Z,10.67
2018-11-29T13:35:35.891Z,11.23
2018-11-29T13:38:24.342Z,11.00
2018-11-29T13:40:52.625Z,11.63
2018-11-29T13:43:20.842Z,10.23
2018-11-29T13:45:49.077Z,10.67
2018-11-29T13:48:17.293Z,10.43
2018-11-29T13:50:45.534Z,9.77
2018-11-29T13:53:14.506Z,11.10
2018-11-29T13:55:41.998Z,9.93
2018-11-29T13:58:10.198Z,9.73
2018-11-29T14:00:38.456Z,10.53
2018-11-29T14:03:26.116Z,10.40
2018-11-29T14:05:54.408Z,10.70
2018-11-29T14:08:22.610Z,10.37
2018-11-29T14:10:51.123Z,10.07
2018-11-29T14:13:19.347Z,10.67
2018-11-29T14:15:47.609Z,10.73
2018-11-29T14:18:15.819Z,9.07
2018-11-29T14:20:44.048Z,10.67
2018-11-29T14:23:12.303Z,9.40
2018-11-29T14:25:40.526Z,10.83
2018-11-29T14:28:08.772Z,9.07
2018-11-29T14:30:36.996Z,9.47
2018-11-29T14:33:05.778Z,8.80
2018-11-29T14:35:33.991Z,9.40
2018-11-29T14:38:02.231Z,9.30
2018-11-29T14:40:32.852Z,9.90
2018-11-29T14:43:01.093Z,9.47
2018-11-29T14:45:29.302Z,8.33
2018-11-29T14:47:57.544Z,9.70
2018-11-29T14:50:45.616Z,9.50
2018-11-29T14:53:13.885Z,10.27
2018-11-29T14:55:42.101Z,10.20
2018-11-29T14:58:11.494Z,9.27
2018-11-29T15:00:39.717Z,9.73
2018-11-29T15:03:09.538Z,9.50
2018-11-29T15:05:37.701Z,8.67
2018-11-29T15:08:07.059Z,11.20
2018-11-29T15:10:35.519Z,8.90
2018-11-29T15:13:03.773Z,9.97
2018-11-29T15:15:31.994Z,10.10
2018-11-29T15:18:00.230Z,9.77
2018-11-29T15:20:52.191Z,9.67
2018-11-29T15:23:21.004Z,10.10
2018-11-29T15:25:49.219Z,10.13
2018-11-29T15:28:17.466Z,9.97
2018-11-29T15:30:45.681Z,10.90
2018-11-29T15:33:13.925Z,9.60
2018-11-29T15:35:42.149Z,10.07
2018-11-29T15:38:10.448Z,10.10
2018-11-29T15:40:38.657Z,9.60
2018-11-29T15:43:06.872Z,9.27
2018-11-29T15:45:35.155Z,10.10
2018-11-29T15:48:03.350Z,9.93
2018-11-29T15:50:31.599Z,10.07
2018-11-29T15:52:59.834Z,9.77
2018-11-29T15:55:28.084Z,9.73
2018-11-29T15:57:56.332Z,9.50
2018-11-29T16:00:44.014Z,10.03
2018-11-29T16:03:12.271Z,9.33
2018-11-29T16:05:41.274Z,10.20
2018-11-29T16:08:08.737Z,9.83
2018-11-29T16:10:36.998Z,10.37
2018-11-29T16:13:06.588Z,10.03
2018-11-29T16:15:34.850Z,8.57
2018-11-29T16:18:03.092Z,10.43
2018-11-29T16:20:32.748Z,8.67
2018-11-29T16:23:00.992Z,10.47
2018-11-29T16:25:29.231Z,9.20
2018-11-29T16:27:57.464Z,9.93
2018-11-29T16:31:04.499Z,11.27
2018-11-29T16:33:34.263Z,9.33
2018-11-29T16:36:02.853Z,9.43
2018-11-29T16:38:31.110Z,9.43
2018-11-29T16:40:59.352Z,10.40
2018-11-29T16:43:27.586Z,10.73
2018-11-29T16:45:55.820Z,9.77
2018-11-29T16:48:24.026Z,8.37
2018-11-29T16:50:52.302Z,10.37
2018-11-29T16:53:20.529Z,9.03
2018-11-29T16:55:48.780Z,9.40
2018-11-29T16:58:21.944Z,10.47
2018-11-29T17:00:50.200Z,10.50
2018-11-29T17:03:18.423Z,10.73
2018-11-29T17:05:46.670Z,9.97
2018-11-29T17:08:14.898Z,9.07
2018-11-29T17:10:43.143Z,9.50
2018-11-29T17:13:16.114Z,9.23
2018-11-29T17:15:44.357Z,9.30
2018-11-29T17:18:12.583Z,10.07
2018-11-29T17:20:40.839Z,10.20
2018-11-29T17:23:10.252Z,9.53
2018-11-29T17:25:38.500Z,10.63
2018-11-29T17:28:07.260Z,8.47
2018-11-29T17:30:36.000Z,9.63
2018-11-29T17:33:04.273Z,10.17
2018-11-29T17:35:32.489Z,9.73
2018-11-29T17:38:00.938Z,10.07
2018-11-29T17:40:29.147Z,9.67
2018-11-29T17:42:57.749Z,9.40
2018-11-29T17:45:29.857Z,9.43
2018-11-29T17:47:59.434Z,10.50
2018-11-29T17:50:29.171Z,10.00
2018-11-29T17:52:57.449Z,9.17
2018-11-29T17:55:25.644Z,8.70
2018-11-29T17:57:53.897Z,9.40
2018-11-29T18:00:23.520Z,9.27
2018-11-29T18:02:51.754Z,7.97
2018-11-29T18:05:19.975Z,8.43
2018-11-29T18:07:48.219Z,8.40
2018-11-29T18:10:20.718Z,8.83
2018-11-29T18:12:50.449Z,10.00
2018-11-29T18:15:38.789Z,9.40
2018-11-29T18:18:07.043Z,8.17
2018-11-29T18:20:35.869Z,8.43
2018-11-29T18:23:04.112Z,9.93
2018-11-29T18:25:32.337Z,9.50
2018-11-29T18:28:00.580Z,8.50
2018-11-29T18:30:28.793Z,8.87
2018-11-29T18:32:57.032Z,8.97
2018-11-29T18:35:25.241Z,8.40
2018-11-29T18:37:53.499Z,8.27
2018-11-29T18:40:22.443Z,8.97
2018-11-29T18:43:10.419Z,8.73
2018-11-29T18:45:39.106Z,8.87
2018-11-29T18:48:07.914Z,9.00
2018-11-29T18:50:36.119Z,9.13
2018-11-29T18:53:04.351Z,8.23
2018-11-29T18:55:32.570Z,7.87
2018-11-29T18:58:01.015Z,9.27
2018-11-29T19:00:48.702Z,8.53
2018-11-29T19:03:16.933Z,7.90
2018-11-29T19:05:45.170Z,8.43
2018-11-29T19:08:13.409Z,8.27
2018-11-29T19:10:41.636Z,8.03
2018-11-29T19:13:11.147Z,7.77
2018-11-29T19:15:39.379Z,8.70
2018-11-29T19:18:10.524Z,8.27
2018-11-29T19:20:36.776Z,7.77
2018-11-29T19:23:05.147Z,9.63
2018-11-29T19:25:33.545Z,7.73
2018-11-29T19:28:01.754Z,7.90
2018-11-29T19:30:30.843Z,7.70
2018-11-29T19:33:00.489Z,8.77
2018-11-29T19:35:28.727Z,6.57
2018-11-29T19:37:56.949Z,6.57
2018-11-29T19:40:25.204Z,8.43
2018-11-29T19:42:53.409Z,8.10
2018-11-29T19:45:21.668Z,8.10
2018-11-29T19:47:49.887Z,7.30
2018-11-29T19:50:19.276Z,7.10
2018-11-29T19:52:48.899Z,7.30
2018-11-29T19:55:18.611Z,7.77
2018-11-29T19:57:46.830Z,7.67
2018-11-29T20:00:15.067Z,7.30
2018-11-29T20:02:44.491Z,7.80
2018-11-29T20:05:13.154Z,7.20
2018-11-29T20:07:41.440Z,6.83
2018-11-29T20:10:29.105Z,7.83
2018-11-29T20:13:16.427Z,7.10
2018-11-29T20:16:04.103Z,8.60
2018-11-29T20:18:32.332Z,7.30
2018-11-29T20:21:00.568Z,6.90
2018-11-29T20:23:28.796Z,7.63
2018-11-29T20:25:57.050Z,7.00
2018-11-29T20:28:25.273Z,7.97
2018-11-29T20:30:53.519Z,8.07
2018-11-29T20:33:21.745Z,7.13
2018-11-29T20:35:50.013Z,7.23
2018-11-29T20:38:18.239Z,8.07
2018-11-29T20:40:46.876Z,7.40
2018-11-29T20:43:15.793Z,7.73
2018-11-29T20:45:48.455Z,7.40
2018-11-29T20:48:36.105Z,6.97
2018-11-29T20:51:04.407Z,8.27
2018-11-29T20:53:52.078Z,7.27
2018-11-29T20:56:20.333Z,8.20
2018-11-29T20:58:48.543Z,8.03
2018-11-29T21:01:16.775Z,7.73
2018-11-29T21:03:44.999Z,7.93
2018-11-29T21:06:14.035Z,8.20
2018-11-29T21:08:42.228Z,7.13
2018-11-29T21:11:10.472Z,7.53
2018-11-29T21:13:38.695Z,8.00
2018-11-29T21:16:08.086Z,7.47
2018-11-29T21:18:35.291Z,7.43
2018-11-29T21:21:03.506Z,8.30
2018-11-29T21:23:31.744Z,8.37
2018-11-29T21:25:59.960Z,8.97
2018-11-29T21:28:28.207Z,7.77
2018-11-29T21:30:56.447Z,7.77
2018-11-29T21:33:24.690Z,6.60
2018-11-29T21:35:52.935Z,7.60
2018-11-29T21:38:21.902Z,8.43
2018-11-29T21:40:58.243Z,7.60
2018-11-29T21:43:26.494Z,7.50
2018-11-29T21:45:54.709Z,7.40
2018-11-29T21:48:22.954Z,8.03
2018-11-29T21:50:51.203Z,7.13
2018-11-29T21:53:19.438Z,7.90
2018-11-29T21:55:47.677Z,7.90
2018-11-29T21:58:15.920Z,7.77
2018-11-29T22:00:44.142Z,8.20
2018-11-29T22:03:12.377Z,7.77
2018-11-29T22:05:40.598Z,7.97
2018-11-29T22:08:08.983Z,8.37
2018-11-29T22:10:37.073Z,8.27
2018-11-29T22:13:05.334Z,7.93
2018-11-29T22:15:33.551Z,8.40
2018-11-29T22:18:22.003Z,8.27
2018-11-29T22:20:54.427Z,8.40
2018-11-29T22:23:22.696Z,8.90
2018-11-29T22:25:51.232Z,7.77
2018-11-29T22:28:19.488Z,8.97
2018-11-29T22:30:47.719Z,8.77
2018-11-29T22:33:15.971Z,8.40
2018-11-29T22:35:44.189Z,9.10
2018-11-29T22:38:12.438Z,8.57
2018-11-29T22:40:41.079Z,7.77
2018-11-29T22:43:09.309Z,8.60
2018-11-29T22:45:37.549Z,8.23
2018-11-29T22:48:05.901Z,8.70
2018-11-29T22:50:34.126Z,8.90
2018-11-29T22:53:02.356Z,8.33
2018-11-29T22:55:30.581Z,8.10
2018-11-29T22:57:58.832Z,8.90
2018-11-29T23:00:39.143Z,7.63
2018-11-29T23:03:07.531Z,8.43
2018-11-29T23:05:35.748Z,8.30
2018-11-29T23:08:05.376Z,8.03
2018-11-29T23:10:32.286Z,8.73
2018-11-29T23:13:00.549Z,7.80
2018-11-29T23:15:28.774Z,8.30
2018-11-29T23:17:57.031Z,8.13
2018-11-29T23:20:25.278Z,7.50
2018-11-29T23:22:53.567Z,8.33
2018-11-29T23:25:21.780Z,7.47
2018-11-29T23:27:50.054Z,7.80
2018-11-29T23:30:18.484Z,7.97
2018-11-29T23:32:46.694Z,8.33
2018-11-29T23:35:15.589Z,7.97
2018-11-29T23:37:43.834Z,7.77
2018-11-29T23:40:31.493Z,7.60
2018-11-29T23:42:59.765Z,9.43
2018-11-29T23:45:27.975Z,8.33
2018-11-29T23:47:56.208Z,8.80
2018-11-29T23:50:24.443Z,7.50
2018-11-29T23:52:52.671Z,8.83
2018-11-29T23:55:21.952Z,8.00
2018-11-29T23:57:50.175Z,8.20
